createdAt,value
2018-10-03T00:00:06.621Z,17.00
2018-10-03T00:02:35.383Z,17.00
2018-10-03T00:05:04.153Z,17.00
2018-10-03T00:07:32.784Z,17.00
2018-10-03T00:10:01.452Z,17.00
2018-10-03T00:12:30.085Z,17.10
2018-10-03T00:14:58.750Z,17.10
2018-10-03T00:17:27.445Z,17.00
2018-10-03T00:19:56.067Z,17.10
2018-10-03T00:22:24.864Z,17.00
2018-10-03T00:24:53.537Z,17.00
2018-10-03T00:27:22.236Z,17.00
2018-10-03T00:29:50.864Z,17.00
2018-10-03T00:32:19.547Z,17.00
2018-10-03T00:34:48.203Z,17.00
2018-10-03T00:37:16.884Z,17.00
2018-10-03T00:39:45.542Z,17.00
2018-10-03T00:42:14.197Z,17.00
2018-10-03T00:44:42.874Z,17.00
2018-10-03T00:47:11.560Z,17.00
2018-10-03T00:49:40.230Z,17.00
2018-10-03T00:52:08.899Z,16.90
2018-10-03T00:54:37.532Z,16.90
2018-10-03T00:57:06.214Z,16.90
2018-10-03T00:59:34.913Z,16.80
2018-10-03T01:02:03.588Z,16.80
2018-10-03T01:04:32.291Z,16.80
2018-10-03T01:07:00.943Z,16.90
2018-10-03T01:09:29.628Z,16.90
2018-10-03T01:11:58.260Z,16.80
2018-10-03T01:14:26.906Z,16.80
2018-10-03T01:16:55.547Z,16.70
2018-10-03T01:19:24.189Z,16.60
2018-10-03T01:21:52.905Z,16.50
2018-10-03T01:24:21.668Z,16.40
2018-10-03T01:26:50.360Z,16.30
2018-10-03T01:29:19.045Z,16.20
2018-10-03T01:31:47.717Z,16.10
2018-10-03T01:34:16.379Z,16.00
2018-10-03T01:36:45.044Z,16.00
2018-10-03T01:39:13.740Z,16.00
2018-10-03T01:41:42.490Z,15.90
2018-10-03T01:44:11.172Z,15.80
2018-10-03T01:46:39.806Z,15.70
2018-10-03T01:49:08.628Z,15.60
2018-10-03T01:51:37.348Z,15.50
2018-10-03T01:54:06.063Z,15.50
2018-10-03T01:56:34.737Z,15.40
2018-10-03T01:59:03.453Z,15.40
2018-10-03T02:01:32.109Z,15.30
2018-10-03T02:04:00.753Z,15.20
2018-10-03T02:06:29.404Z,15.10
2018-10-03T02:08:58.074Z,14.90
2018-10-03T02:11:26.731Z,14.80
2018-10-03T02:13:55.378Z,14.80
2018-10-03T02:16:24.020Z,14.90
2018-10-03T02:18:52.653Z,14.90
2018-10-03T02:21:21.296Z,14.80
2018-10-03T02:23:50.003Z,14.70
2018-10-03T02:26:18.625Z,14.60
2018-10-03T02:28:47.261Z,14.60
2018-10-03T02:31:15.944Z,14.50
2018-10-03T02:33:44.741Z,14.40
2018-10-03T02:36:13.394Z,14.30
2018-10-03T02:38:42.024Z,14.30
2018-10-03T02:41:10.684Z,14.20
2018-10-03T02:43:39.361Z,14.20
2018-10-03T02:46:08.004Z,14.10
2018-10-03T02:48:36.649Z,14.10
2018-10-03T02:51:05.274Z,14.10
2018-10-03T02:53:33.948Z,14.00
2018-10-03T02:56:02.637Z,13.90
2018-10-03T02:58:31.268Z,13.90
2018-10-03T03:00:59.915Z,13.90
2018-10-03T03:03:28.558Z,14.00
2018-10-03T03:05:57.209Z,13.90
2018-10-03T03:08:25.929Z,13.90
2018-10-03T03:10:54.596Z,13.70
2018-10-03T03:13:23.276Z,13.70
2018-10-03T03:15:51.924Z,13.70
2018-10-03T03:18:20.604Z,13.60
2018-10-03T03:20:49.261Z,13.60
2018-10-03T03:23:17.930Z,13.50
2018-10-03T03:25:46.572Z,13.50
2018-10-03T03:28:15.233Z,13.40
2018-10-03T03:30:43.860Z,13.40
2018-10-03T03:33:12.520Z,13.30
2018-10-03T03:35:41.206Z,13.40
2018-10-03T03:38:09.849Z,13.30
2018-10-03T03:40:38.513Z,13.20
2018-10-03T03:43:07.185Z,13.10
2018-10-03T03:45:35.860Z,13.00
2018-10-03T03:48:04.525Z,12.90
2018-10-03T03:50:33.152Z,12.90
2018-10-03T03:53:01.820Z,12.90
2018-10-03T03:55:30.497Z,12.80
2018-10-03T03:57:59.136Z,12.80
2018-10-03T04:00:27.776Z,12.70
2018-10-03T04:02:56.432Z,12.70
2018-10-03T04:05:25.048Z,12.70
2018-10-03T04:07:54.013Z,12.70
2018-10-03T04:10:22.640Z,12.70
2018-10-03T04:12:51.574Z,12.70
2018-10-03T04:15:20.682Z,12.70
2018-10-03T04:17:49.332Z,12.60
2018-10-03T04:20:18.012Z,12.50
2018-10-03T04:22:46.648Z,12.50
2018-10-03T04:25:15.357Z,12.50
2018-10-03T04:27:43.993Z,12.50
2018-10-03T04:30:12.676Z,12.50
2018-10-03T04:32:41.319Z,12.40
2018-10-03T04:35:09.939Z,12.50
2018-10-03T04:37:38.609Z,12.50
2018-10-03T04:40:07.322Z,12.50
2018-10-03T04:42:35.976Z,12.50
2018-10-03T04:45:04.799Z,12.40
2018-10-03T04:47:33.414Z,12.40
2018-10-03T04:50:02.045Z,12.40
2018-10-03T04:52:30.677Z,12.40
2018-10-03T04:54:59.316Z,12.40
2018-10-03T04:57:27.932Z,12.30
2018-10-03T04:59:56.579Z,12.20
2018-10-03T05:02:25.213Z,12.10
2018-10-03T05:04:53.844Z,12.10
2018-10-03T05:07:22.504Z,12.00
2018-10-03T05:09:51.131Z,12.00
2018-10-03T05:12:19.774Z,11.90
2018-10-03T05:14:48.427Z,11.90
2018-10-03T05:17:17.029Z,11.90
2018-10-03T05:19:45.712Z,11.90
2018-10-03T05:22:14.409Z,11.90
2018-10-03T05:24:43.037Z,12.00
2018-10-03T05:27:11.765Z,12.00
2018-10-03T05:29:40.418Z,12.00
2018-10-03T05:32:09.102Z,11.90
2018-10-03T05:34:37.744Z,11.80
2018-10-03T05:37:06.538Z,11.80
2018-10-03T05:39:35.217Z,11.70
2018-10-03T05:42:03.965Z,11.70
2018-10-03T05:44:32.648Z,11.70
2018-10-03T05:47:01.299Z,11.60
2018-10-03T05:49:29.959Z,11.60
2018-10-03T05:51:58.620Z,11.50
2018-10-03T05:54:27.267Z,11.50
2018-10-03T05:56:55.920Z,11.60
2018-10-03T05:59:24.580Z,11.50
2018-10-03T06:01:53.322Z,11.40
2018-10-03T06:04:21.964Z,11.30
2018-10-03T06:06:50.614Z,11.30
2018-10-03T06:09:19.344Z,11.40
2018-10-03T06:11:48.001Z,11.30
2018-10-03T06:14:16.673Z,11.30
2018-10-03T06:16:45.311Z,11.30
2018-10-03T06:19:14.001Z,11.40
2018-10-03T06:21:42.757Z,11.40
2018-10-03T06:24:11.472Z,11.50
2018-10-03T06:26:40.172Z,11.50
2018-10-03T06:29:08.941Z,11.60
2018-10-03T06:31:37.636Z,11.70
2018-10-03T06:34:06.284Z,11.90
2018-10-03T06:36:34.932Z,12.00
2018-10-03T06:39:04.184Z,12.20
2018-10-03T06:41:32.824Z,12.40
2018-10-03T06:44:01.482Z,12.60
2018-10-03T06:46:30.129Z,12.90
2018-10-03T06:48:59.064Z,13.20
2018-10-03T06:51:27.712Z,13.50
2018-10-03T06:53:56.397Z,13.70
2018-10-03T06:56:25.081Z,13.90
2018-10-03T06:58:53.769Z,14.20
2018-10-03T07:01:22.415Z,14.40
2018-10-03T07:03:51.052Z,14.40
2018-10-03T07:06:19.736Z,14.80
2018-10-03T07:08:49.258Z,15.00
2018-10-03T07:11:21.947Z,15.20
2018-10-03T07:13:55.019Z,15.40
2018-10-03T07:16:24.811Z,15.60
2018-10-03T07:18:53.531Z,15.70
2018-10-03T07:21:22.215Z,16.00
2018-10-03T07:23:50.945Z,16.10
2018-10-03T07:26:19.731Z,16.30
2018-10-03T07:28:48.436Z,16.50
2018-10-03T07:31:17.500Z,16.70
2018-10-03T07:33:46.211Z,16.90
2018-10-03T07:36:14.877Z,17.10
2018-10-03T07:38:43.568Z,17.40
2018-10-03T07:41:12.240Z,17.80
2018-10-03T07:43:40.912Z,18.10
2018-10-03T07:46:14.756Z,18.40
2018-10-03T07:48:43.460Z,18.90
2018-10-03T07:51:12.145Z,19.20
2018-10-03T07:53:40.891Z,19.30
2018-10-03T07:56:09.552Z,19.60
2018-10-03T07:58:38.217Z,19.80
2018-10-03T08:01:07.097Z,20.10
2018-10-03T08:03:35.768Z,20.20
2018-10-03T08:06:04.456Z,20.40
2018-10-03T08:08:33.101Z,20.50
2018-10-03T08:11:01.745Z,20.60
2018-10-03T08:13:30.411Z,20.70
2018-10-03T08:15:59.165Z,20.90
2018-10-03T08:18:27.818Z,21.00
2018-10-03T08:20:56.516Z,21.00
2018-10-03T08:23:25.194Z,21.10
2018-10-03T08:25:53.852Z,21.30
2018-10-03T08:28:22.498Z,21.40
2018-10-03T08:30:51.194Z,21.40
2018-10-03T08:33:19.952Z,21.50
2018-10-03T08:35:48.663Z,21.50
2018-10-03T08:38:17.285Z,21.60
2018-10-03T08:40:45.947Z,21.60
2018-10-03T08:43:14.588Z,21.70
2018-10-03T08:45:43.323Z,21.80
2018-10-03T08:48:11.964Z,21.80
2018-10-03T08:50:40.596Z,22.00
2018-10-03T08:53:09.261Z,22.20
2018-10-03T08:55:37.915Z,22.30
2018-10-03T08:58:06.660Z,22.40
2018-10-03T09:00:35.265Z,22.60
2018-10-03T09:03:03.936Z,22.70
2018-10-03T09:05:32.613Z,22.50
2018-10-03T09:08:10.583Z,22.80
2018-10-03T09:10:40.741Z,22.80
2018-10-03T09:13:09.508Z,22.90
2018-10-03T09:15:38.200Z,23.00
2018-10-03T09:18:06.889Z,23.10
2018-10-03T09:20:35.786Z,23.20
2018-10-03T09:23:04.861Z,23.20
2018-10-03T09:25:33.560Z,23.20
2018-10-03T09:28:02.541Z,23.30
2018-10-03T09:30:31.297Z,23.30
2018-10-03T09:33:00.226Z,23.30
2018-10-03T09:35:28.899Z,23.40
2018-10-03T09:37:57.548Z,23.40
2018-10-03T09:40:26.253Z,23.50
2018-10-03T09:42:54.902Z,23.50
2018-10-03T09:45:23.561Z,23.60
2018-10-03T09:47:52.261Z,23.50
2018-10-03T09:50:20.961Z,23.70
2018-10-03T09:52:49.609Z,23.80
2018-10-03T09:55:18.244Z,23.80
2018-10-03T09:57:46.912Z,24.00
2018-10-03T10:00:20.038Z,24.10
2018-10-03T10:02:48.706Z,24.30
2018-10-03T10:05:17.349Z,24.50
2018-10-03T10:07:46.033Z,24.60
2018-10-03T10:10:14.711Z,24.80
2018-10-03T10:12:43.390Z,24.90
2018-10-03T10:15:12.136Z,25.10
2018-10-03T10:17:40.770Z,25.30
2018-10-03T10:20:09.428Z,25.40
2018-10-03T10:22:38.097Z,25.50
2018-10-03T10:25:06.811Z,25.70
2018-10-03T10:27:35.459Z,25.90
2018-10-03T10:30:04.205Z,26.10
2018-10-03T10:32:32.934Z,26.00
2018-10-03T10:35:01.536Z,26.60
2018-10-03T10:37:30.301Z,26.70
2018-10-03T10:39:58.973Z,26.90
2018-10-03T10:42:27.652Z,27.00
2018-10-03T10:44:56.276Z,27.30
2018-10-03T10:47:24.927Z,27.30
2018-10-03T10:49:53.580Z,27.30
2018-10-03T10:52:22.323Z,27.40
2018-10-03T10:54:50.961Z,27.30
2018-10-03T10:57:19.664Z,27.40
2018-10-03T10:59:48.414Z,27.40
2018-10-03T11:02:17.065Z,27.50
2018-10-03T11:04:45.761Z,27.40
2018-10-03T11:07:14.414Z,27.40
2018-10-03T11:09:43.160Z,27.30
2018-10-03T11:12:11.815Z,27.40
2018-10-03T11:14:40.465Z,27.50
2018-10-03T11:17:09.150Z,27.70
2018-10-03T11:19:37.919Z,27.60
2018-10-03T11:22:06.609Z,27.70
2018-10-03T11:24:35.431Z,27.80
2018-10-03T11:27:03.960Z,27.80
2018-10-03T11:29:32.641Z,27.70
2018-10-03T11:32:01.285Z,27.60
2018-10-03T11:34:30.061Z,27.50
2018-10-03T11:36:58.981Z,27.50
2018-10-03T11:39:27.697Z,27.50
2018-10-03T11:41:56.329Z,27.50
2018-10-03T11:44:24.981Z,27.60
2018-10-03T11:46:53.663Z,27.40
2018-10-03T11:49:22.305Z,27.40
2018-10-03T11:51:50.933Z,27.30
2018-10-03T11:54:19.613Z,27.30
2018-10-03T11:56:48.301Z,27.50
2018-10-03T11:59:16.976Z,27.40
2018-10-03T12:01:45.641Z,27.50
2018-10-03T12:04:14.297Z,27.50
2018-10-03T12:06:42.928Z,27.60
2018-10-03T12:09:12.713Z,27.50
2018-10-03T12:11:41.440Z,27.70
2018-10-03T12:14:10.493Z,27.60
2018-10-03T12:16:39.705Z,27.80
2018-10-03T12:19:08.412Z,27.80
2018-10-03T12:21:37.839Z,27.90
2018-10-03T12:24:06.481Z,27.90
2018-10-03T12:26:35.147Z,27.80
2018-10-03T12:29:03.791Z,27.70
2018-10-03T12:31:32.436Z,27.60
2018-10-03T12:34:01.100Z,27.50
2018-10-03T12:36:29.822Z,27.50
2018-10-03T12:38:58.514Z,27.60
2018-10-03T12:41:27.156Z,27.60
2018-10-03T12:43:56.269Z,27.50
2018-10-03T12:46:24.933Z,27.40
2018-10-03T12:48:53.588Z,27.50
2018-10-03T12:51:22.227Z,27.50
2018-10-03T12:53:50.853Z,27.60
2018-10-03T12:56:19.506Z,27.60
2018-10-03T12:58:48.145Z,27.50
2018-10-03T13:01:16.826Z,27.40
2018-10-03T13:03:45.495Z,27.20
2018-10-03T13:06:14.166Z,27.20
2018-10-03T13:08:42.779Z,27.00
2018-10-03T13:11:11.454Z,27.00
2018-10-03T13:13:40.092Z,26.90
2018-10-03T13:16:08.916Z,27.00
2018-10-03T13:18:37.568Z,27.10
2018-10-03T13:21:06.257Z,27.30
2018-10-03T13:23:34.900Z,27.30
2018-10-03T13:26:03.564Z,27.10
2018-10-03T13:28:32.238Z,27.30
2018-10-03T13:31:00.888Z,27.20
2018-10-03T13:33:29.520Z,27.20
2018-10-03T13:35:58.172Z,27.20
2018-10-03T13:38:26.813Z,27.20
2018-10-03T13:40:55.496Z,27.10
2018-10-03T13:43:24.177Z,27.10
2018-10-03T13:45:52.832Z,27.00
2018-10-03T13:48:21.493Z,27.00
2018-10-03T13:50:50.154Z,27.00
2018-10-03T13:53:18.796Z,26.90
2018-10-03T13:55:47.453Z,26.90
2018-10-03T13:58:16.099Z,26.80
2018-10-03T14:00:44.805Z,26.70
2018-10-03T14:03:13.519Z,26.70
2018-10-03T14:05:42.186Z,26.60
2018-10-03T14:08:10.842Z,26.50
2018-10-03T14:10:39.491Z,26.50
2018-10-03T14:13:08.242Z,26.50
2018-10-03T14:15:36.919Z,26.60
2018-10-03T14:18:05.609Z,26.60
2018-10-03T14:20:34.274Z,26.50
2018-10-03T14:23:02.920Z,26.40
2018-10-03T14:25:31.561Z,26.40
2018-10-03T14:28:00.200Z,26.30
2018-10-03T14:30:28.838Z,26.30
2018-10-03T14:32:57.970Z,26.20
2018-10-03T14:35:26.621Z,26.20
2018-10-03T14:37:55.319Z,26.10
2018-10-03T14:40:23.976Z,26.00
2018-10-03T14:42:52.599Z,25.90
2018-10-03T14:45:21.274Z,25.90
2018-10-03T14:47:49.892Z,25.90
2018-10-03T14:50:18.592Z,25.80
2018-10-03T14:52:47.231Z,25.80
2018-10-03T14:55:15.884Z,25.70
2018-10-03T14:57:44.520Z,25.70
2018-10-03T15:00:13.187Z,25.70
2018-10-03T15:02:41.855Z,25.60
2018-10-03T15:05:10.554Z,25.50
2018-10-03T15:07:39.237Z,25.40
2018-10-03T15:10:07.925Z,25.50
2018-10-03T15:12:36.576Z,25.40
2018-10-03T15:15:05.601Z,25.40
2018-10-03T15:17:34.248Z,25.40
2018-10-03T15:20:02.940Z,25.40
2018-10-03T15:22:31.608Z,25.30
2018-10-03T15:25:00.228Z,25.30
2018-10-03T15:27:28.901Z,25.20
2018-10-03T15:29:57.635Z,25.20
2018-10-03T15:32:26.317Z,25.20
2018-10-03T15:34:54.960Z,25.20
2018-10-03T15:37:23.621Z,25.10
2018-10-03T15:39:52.276Z,25.00
2018-10-03T15:42:20.941Z,25.00
2018-10-03T15:44:49.585Z,25.00
2018-10-03T15:47:18.285Z,24.90
2018-10-03T15:49:46.893Z,25.00
2018-10-03T15:52:15.606Z,25.00
2018-10-03T15:54:44.326Z,25.00
2018-10-03T15:57:12.989Z,24.90
2018-10-03T15:59:41.801Z,24.90
2018-10-03T16:02:10.437Z,24.80
2018-10-03T16:04:39.109Z,24.80
2018-10-03T16:07:07.759Z,24.80
2018-10-03T16:09:36.426Z,24.70
2018-10-03T16:12:05.118Z,24.60
2018-10-03T16:14:33.902Z,24.50
2018-10-03T16:17:03.488Z,24.40
2018-10-03T16:19:32.163Z,24.30
2018-10-03T16:22:00.835Z,24.20
2018-10-03T16:24:29.473Z,24.20
2018-10-03T16:26:58.160Z,24.00
2018-10-03T16:29:26.861Z,24.10
2018-10-03T16:31:55.500Z,24.00
2018-10-03T16:34:24.141Z,23.90
2018-10-03T16:36:52.816Z,23.90
2018-10-03T16:39:21.487Z,23.80
2018-10-03T16:41:50.156Z,23.80
2018-10-03T16:44:18.840Z,23.70
2018-10-03T16:46:47.509Z,23.60
2018-10-03T16:49:16.160Z,23.50
2018-10-03T16:51:44.869Z,23.40
2018-10-03T16:54:13.576Z,23.40
2018-10-03T16:56:42.232Z,23.30
2018-10-03T16:59:10.889Z,23.20
2018-10-03T17:01:39.526Z,23.20
2018-10-03T17:04:08.207Z,23.00
2018-10-03T17:06:37.017Z,23.00
2018-10-03T17:09:06.827Z,23.00
2018-10-03T17:11:35.864Z,22.90
2018-10-03T17:14:24.713Z,22.90
2018-10-03T17:16:54.277Z,22.80
2018-10-03T17:19:22.975Z,22.80
2018-10-03T17:21:52.323Z,22.70
2018-10-03T17:24:22.228Z,22.60
2018-10-03T17:26:50.893Z,22.60
2018-10-03T17:29:19.543Z,22.60
2018-10-03T17:31:48.317Z,22.40
2018-10-03T17:34:17.684Z,22.40
2018-10-03T17:36:49.605Z,22.30
2018-10-03T17:39:18.580Z,22.30
2018-10-03T17:41:47.381Z,22.30
2018-10-03T17:44:17.021Z,22.30
2018-10-03T17:46:46.328Z,22.20
2018-10-03T17:49:14.968Z,22.20
2018-10-03T17:51:43.711Z,22.20
2018-10-03T17:54:12.420Z,22.10
2018-10-03T17:56:41.075Z,22.10
2018-10-03T17:59:10.259Z,22.00
2018-10-03T18:01:50.219Z,21.90
2018-10-03T18:04:18.946Z,21.90
2018-10-03T18:06:59.581Z,21.80
2018-10-03T18:09:44.488Z,21.80
2018-10-03T18:12:13.243Z,21.70
2018-10-03T18:14:43.788Z,21.70
2018-10-03T18:17:15.124Z,21.70
2018-10-03T18:19:54.777Z,21.70
2018-10-03T18:22:41.257Z,21.70
2018-10-03T18:25:12.399Z,21.60
2018-10-03T18:27:59.417Z,21.50
2018-10-03T18:30:42.579Z,21.60
2018-10-03T18:33:18.263Z,21.50
2018-10-03T18:35:46.934Z,21.40
2018-10-03T18:38:16.153Z,21.30
2018-10-03T18:40:45.904Z,21.30
2018-10-03T18:43:15.210Z,21.20
2018-10-03T18:45:44.644Z,21.20
2018-10-03T18:48:39.450Z,21.20
2018-10-03T18:51:21.525Z,21.10
2018-10-03T18:53:50.418Z,21.00
2018-10-03T18:56:19.748Z,20.90
2018-10-03T18:58:52.038Z,21.00
2018-10-03T19:01:20.702Z,20.90
2018-10-03T19:03:49.425Z,20.90
2018-10-03T19:06:18.190Z,20.90
2018-10-03T19:08:48.776Z,20.90
2018-10-03T19:11:17.488Z,21.00
2018-10-03T19:13:46.201Z,20.80
2018-10-03T19:16:14.825Z,20.80
2018-10-03T19:18:43.431Z,20.70
2018-10-03T19:21:12.078Z,20.70
2018-10-03T19:23:40.728Z,20.60
2018-10-03T19:26:09.488Z,20.60
2018-10-03T19:28:38.149Z,20.50
2018-10-03T19:31:06.776Z,20.50
2018-10-03T19:33:35.411Z,20.50
2018-10-03T19:36:04.095Z,20.50
2018-10-03T19:38:32.764Z,20.00
2018-10-03T19:41:01.418Z,20.30
2018-10-03T19:43:30.115Z,20.20
2018-10-03T19:45:58.852Z,20.20
2018-10-03T19:48:27.551Z,20.20
2018-10-03T19:50:56.192Z,20.10
2018-10-03T19:53:30.202Z,20.10
2018-10-03T19:55:59.061Z,20.10
2018-10-03T19:58:27.709Z,20.10
2018-10-03T20:00:56.411Z,20.10
2018-10-03T20:03:25.069Z,20.10
2018-10-03T20:05:53.768Z,20.00
2018-10-03T20:08:22.383Z,20.00
2018-10-03T20:10:51.167Z,19.90
2018-10-03T20:13:20.185Z,19.80
2018-10-03T20:15:48.889Z,19.70
2018-10-03T20:18:17.533Z,19.60
2018-10-03T20:20:46.243Z,19.60
2018-10-03T20:23:14.897Z,19.50
2018-10-03T20:25:43.541Z,19.50
2018-10-03T20:28:12.226Z,19.40
2018-10-03T20:30:40.912Z,19.30
2018-10-03T20:33:09.602Z,19.30
2018-10-03T20:35:38.555Z,19.20
2018-10-03T20:38:07.264Z,19.10
2018-10-03T20:40:36.037Z,19.10
2018-10-03T20:43:04.791Z,18.90
2018-10-03T20:45:33.435Z,18.90
2018-10-03T20:48:02.128Z,18.90
2018-10-03T20:50:30.765Z,18.90
2018-10-03T20:52:59.431Z,18.90
2018-10-03T20:55:28.088Z,18.90
2018-10-03T20:57:56.745Z,19.00
2018-10-03T21:00:25.457Z,19.00
2018-10-03T21:02:54.098Z,19.00
2018-10-03T21:05:22.749Z,19.00
2018-10-03T21:07:51.449Z,19.10
2018-10-03T21:10:20.096Z,19.10
2018-10-03T21:12:48.714Z,19.10
2018-10-03T21:15:17.396Z,19.10
2018-10-03T21:17:46.053Z,19.10
2018-10-03T21:20:14.833Z,19.10
2018-10-03T21:22:43.513Z,19.10
2018-10-03T21:25:12.162Z,19.00
2018-10-03T21:27:40.793Z,19.00
2018-10-03T21:30:09.472Z,18.90
2018-10-03T21:32:38.308Z,18.80
2018-10-03T21:35:07.221Z,18.70
2018-10-03T21:37:35.857Z,18.60
2018-10-03T21:40:04.613Z,18.60
2018-10-03T21:42:33.260Z,18.50
2018-10-03T21:45:01.964Z,18.50
2018-10-03T21:47:30.663Z,18.40
2018-10-03T21:49:59.309Z,18.40
2018-10-03T21:52:27.961Z,18.30
2018-10-03T21:54:56.597Z,18.20
2018-10-03T21:57:26.226Z,18.20
2018-10-03T21:59:54.854Z,18.20
2018-10-03T22:02:23.500Z,18.20
2018-10-03T22:04:52.169Z,18.20
2018-10-03T22:07:20.863Z,18.30
2018-10-03T22:09:49.528Z,18.30
2018-10-03T22:12:18.149Z,18.30
2018-10-03T22:14:46.767Z,18.20
2018-10-03T22:17:20.868Z,18.10
2018-10-03T22:19:49.565Z,18.10
2018-10-03T22:22:18.241Z,18.00
2018-10-03T22:24:46.964Z,18.00
2018-10-03T22:27:16.049Z,17.90
2018-10-03T22:29:45.067Z,17.80
2018-10-03T22:32:13.744Z,17.70
2018-10-03T22:34:42.480Z,17.70
2018-10-03T22:37:11.545Z,17.70
2018-10-03T22:39:41.032Z,17.70
2018-10-03T22:42:09.743Z,17.70
2018-10-03T22:44:38.364Z,17.70
2018-10-03T22:47:07.180Z,17.70
2018-10-03T22:49:35.912Z,17.80
2018-10-03T22:52:04.556Z,17.80
2018-10-03T22:54:33.216Z,17.80
2018-10-03T22:57:01.838Z,17.80
2018-10-03T22:59:30.484Z,17.90
2018-10-03T23:01:59.194Z,17.90
2018-10-03T23:04:28.406Z,17.90
2018-10-03T23:06:57.050Z,17.90
2018-10-03T23:09:25.765Z,17.80
2018-10-03T23:11:54.452Z,17.70
2018-10-03T23:14:23.081Z,17.60
2018-10-03T23:16:51.699Z,17.60
2018-10-03T23:19:20.345Z,17.60
2018-10-03T23:21:48.976Z,17.60
2018-10-03T23:24:17.601Z,17.50
2018-10-03T23:26:46.212Z,17.50
2018-10-03T23:29:14.839Z,17.50
2018-10-03T23:31:43.473Z,17.50
2018-10-03T23:34:12.092Z,17.30
2018-10-03T23:36:40.733Z,17.30
2018-10-03T23:39:11.141Z,17.20
2018-10-03T23:41:40.023Z,17.20
2018-10-03T23:44:09.008Z,17.20
2018-10-03T23:46:37.643Z,17.20
2018-10-03T23:49:06.295Z,17.20
2018-10-03T23:51:34.977Z,17.30
2018-10-03T23:54:03.625Z,17.30
2018-10-03T23:56:32.295Z,17.20
2018-10-03T23:59:00.936Z,17.10
